sensor_id;sensor_type;location;lat;lon;timestamp;temperature;humidity
51839;DHT22;37886;53.174;6.368;2023-07-20T00:01:15;15.00;99.90
51839;DHT22;37886;53.174;6.368;2023-07-20T00:03:41;15.00;99.90
51839;DHT22;37886;53.174;6.368;2023-07-20T00:06:08;15.00;99.90
51839;DHT22;37886;53.174;6.368;2023-07-20T00:08:34;15.00;99.90
51839;DHT22;37886;53.174;6.368;2023-07-20T00:10:59;15.00;99.90
51839;DHT22;37886;53.174;6.368;2023-07-20T00:13:25;15.00;99.90
51839;DHT22;37886;53.174;6.368;2023-07-20T00:15:51;14.90;99.90
51839;DHT22;37886;53.174;6.368;2023-07-20T00:18:17;14.90;99.90
51839;DHT22;37886;53.174;6.368;2023-07-20T00:20:43;14.80;99.90
51839;DHT22;37886;53.174;6.368;2023-07-20T00:23:08;14.90;99.90
51839;DHT22;37886;53.174;6.368;2023-07-20T00:25:34;14.90;99.90
51839;DHT22;37886;53.174;6.368;2023-07-20T00:28:01;14.90;99.90
51839;DHT22;37886;53.174;6.368;2023-07-20T00:30:26;14.90;99.90
51839;DHT22;37886;53.174;6.368;2023-07-20T00:32:52;14.80;99.90
51839;DHT22;37886;53.174;6.368;2023-07-20T00:35:18;14.80;99.90
51839;DHT22;37886;53.174;6.368;2023-07-20T00:37:43;14.70;99.90
51839;DHT22;37886;53.174;6.368;2023-07-20T00:40:09;14.70;99.90
51839;DHT22;37886;53.174;6.368;2023-07-20T00:42:35;14.60;99.90
51839;DHT22;37886;53.174;6.368;2023-07-20T00:45:01;14.50;99.90
51839;DHT22;37886;53.174;6.368;2023-07-20T00:47:27;14.50;99.90
51839;DHT22;37886;53.174;6.368;2023-07-20T00:49:54;14.40;99.90
51839;DHT22;37886;53.174;6.368;2023-07-20T00:52:21;14.30;99.90
51839;DHT22;37886;53.174;6.368;2023-07-20T00:54:49;14.30;99.90
51839;DHT22;37886;53.174;6.368;2023-07-20T00:57:15;14.20;99.90
51839;DHT22;37886;53.174;6.368;2023-07-20T00:59:42;14.20;99.90
51839;DHT22;37886;53.174;6.368;2023-07-20T01:02:08;14.10;99.90
51839;DHT22;37886;53.174;6.368;2023-07-20T01:04:34;14.00;99.90
51839;DHT22;37886;53.174;6.368;2023-07-20T01:07:17;14.10;99.90
51839;DHT22;37886;53.174;6.368;2023-07-20T01:09:52;14.00;99.90
51839;DHT22;37886;53.174;6.368;2023-07-20T01:12:42;13.90;99.90
51839;DHT22;37886;53.174;6.368;2023-07-20T01:15:08;13.80;99.90
51839;DHT22;37886;53.174;6.368;2023-07-20T01:17:35;13.80;99.90
51839;DHT22;37886;53.174;6.368;2023-07-20T01:20:01;13.70;99.90
51839;DHT22;37886;53.174;6.368;2023-07-20T01:31:17;13.40;99.90
51839;DHT22;37886;53.174;6.368;2023-07-20T01:33:43;13.30;99.90
51839;DHT22;37886;53.174;6.368;2023-07-20T01:36:10;13.30;99.90
51839;DHT22;37886;53.174;6.368;2023-07-20T01:38:37;13.20;99.90
51839;DHT22;37886;53.174;6.368;2023-07-20T01:41:03;13.10;99.90
51839;DHT22;37886;53.174;6.368;2023-07-20T01:43:29;13.10;99.90
51839;DHT22;37886;53.174;6.368;2023-07-20T01:45:55;13.10;99.90
51839;DHT22;37886;53.174;6.368;2023-07-20T01:48:20;13.00;99.90
51839;DHT22;37886;53.174;6.368;2023-07-20T01:50:46;13.00;99.90
51839;DHT22;37886;53.174;6.368;2023-07-20T01:53:12;12.90;99.90
51839;DHT22;37886;53.174;6.368;2023-07-20T01:55:38;12.90;99.90
51839;DHT22;37886;53.174;6.368;2023-07-20T01:58:04;12.80;99.90
51839;DHT22;37886;53.174;6.368;2023-07-20T02:00:30;12.70;99.90
51839;DHT22;37886;53.174;6.368;2023-07-20T02:02:55;12.70;99.90
51839;DHT22;37886;53.174;6.368;2023-07-20T02:05:21;12.60;99.90
51839;DHT22;37886;53.174;6.368;2023-07-20T02:07:47;12.60;99.90
51839;DHT22;37886;53.174;6.368;2023-07-20T02:10:13;12.60;99.90
51839;DHT22;37886;53.174;6.368;2023-07-20T02:12:38;12.60;99.90
51839;DHT22;37886;53.174;6.368;2023-07-20T02:15:04;12.50;99.90
51839;DHT22;37886;53.174;6.368;2023-07-20T02:17:30;12.40;99.90
51839;DHT22;37886;53.174;6.368;2023-07-20T02:19:56;12.50;99.90
51839;DHT22;37886;53.174;6.368;2023-07-20T02:22:25;12.30;99.90
51839;DHT22;37886;53.174;6.368;2023-07-20T02:24:51;12.40;99.90
51839;DHT22;37886;53.174;6.368;2023-07-20T02:27:17;12.40;99.90
51839;DHT22;37886;53.174;6.368;2023-07-20T02:29:43;12.40;99.90
51839;DHT22;37886;53.174;6.368;2023-07-20T02:32:09;12.40;99.90
51839;DHT22;37886;53.174;6.368;2023-07-20T02:34:37;12.50;99.90
51839;DHT22;37886;53.174;6.368;2023-07-20T02:37:04;12.50;99.90
51839;DHT22;37886;53.174;6.368;2023-07-20T02:39:30;12.50;99.90
51839;DHT22;37886;53.174;6.368;2023-07-20T02:41:56;12.60;99.90
51839;DHT22;37886;53.174;6.368;2023-07-20T02:44:21;12.70;99.90
51839;DHT22;37886;53.174;6.368;2023-07-20T02:46:47;12.70;99.90
51839;DHT22;37886;53.174;6.368;2023-07-20T02:49:15;12.70;99.90
51839;DHT22;37886;53.174;6.368;2023-07-20T02:51:41;12.60;99.90
51839;DHT22;37886;53.174;6.368;2023-07-20T02:54:07;12.50;99.90
51839;DHT22;37886;53.174;6.368;2023-07-20T02:56:33;12.50;99.90
51839;DHT22;37886;53.174;6.368;2023-07-20T02:59:01;12.40;99.90
51839;DHT22;37886;53.174;6.368;2023-07-20T03:01:26;12.30;99.90
51839;DHT22;37886;53.174;6.368;2023-07-20T03:03:55;12.30;99.90
51839;DHT22;37886;53.174;6.368;2023-07-20T03:06:21;12.20;99.90
51839;DHT22;37886;53.174;6.368;2023-07-20T03:08:47;12.10;99.90
51839;DHT22;37886;53.174;6.368;2023-07-20T03:11:17;12.10;99.90
51839;DHT22;37886;53.174;6.368;2023-07-20T03:13:44;12.10;99.90
51839;DHT22;37886;53.174;6.368;2023-07-20T03:16:13;12.10;99.90
51839;DHT22;37886;53.174;6.368;2023-07-20T03:18:43;12.10;99.90
51839;DHT22;37886;53.174;6.368;2023-07-20T03:21:10;12.10;99.90
51839;DHT22;37886;53.174;6.368;2023-07-20T03:23:40;12.00;99.90
51839;DHT22;37886;53.174;6.368;2023-07-20T03:26:06;12.00;99.90
51839;DHT22;37886;53.174;6.368;2023-07-20T03:28:34;11.90;99.90
51839;DHT22;37886;53.174;6.368;2023-07-20T03:31:00;12.00;99.90
51839;DHT22;37886;53.174;6.368;2023-07-20T03:33:28;12.00;99.90
51839;DHT22;37886;53.174;6.368;2023-07-20T03:35:54;11.80;99.90
51839;DHT22;37886;53.174;6.368;2023-07-20T03:38:21;11.80;99.90
51839;DHT22;37886;53.174;6.368;2023-07-20T03:40:53;11.80;99.90
51839;DHT22;37886;53.174;6.368;2023-07-20T03:43:24;11.80;99.90
51839;DHT22;37886;53.174;6.368;2023-07-20T03:45:50;11.80;99.90
51839;DHT22;37886;53.174;6.368;2023-07-20T03:48:17;11.80;99.90
51839;DHT22;37886;53.174;6.368;2023-07-20T03:50:47;11.80;99.90
51839;DHT22;37886;53.174;6.368;2023-07-20T03:53:13;11.80;99.90
51839;DHT22;37886;53.174;6.368;2023-07-20T03:55:50;11.80;99.90
51839;DHT22;37886;53.174;6.368;2023-07-20T03:58:16;11.90;99.90
51839;DHT22;37886;53.174;6.368;2023-07-20T04:00:46;11.90;99.90
51839;DHT22;37886;53.174;6.368;2023-07-20T04:03:13;11.90;99.90
51839;DHT22;37886;53.174;6.368;2023-07-20T04:05:40;12.00;99.90
51839;DHT22;37886;53.174;6.368;2023-07-20T04:08:06;11.90;99.90
51839;DHT22;37886;53.174;6.368;2023-07-20T04:10:31;11.90;99.90
51839;DHT22;37886;53.174;6.368;2023-07-20T04:12:57;12.00;99.90
51839;DHT22;37886;53.174;6.368;2023-07-20T04:15:23;11.90;99.90
51839;DHT22;37886;53.174;6.368;2023-07-20T04:17:49;11.90;99.90
51839;DHT22;37886;53.174;6.368;2023-07-20T04:20:14;11.90;99.90
51839;DHT22;37886;53.174;6.368;2023-07-20T04:22:40;11.90;99.90
51839;DHT22;37886;53.174;6.368;2023-07-20T04:25:06;12.00;99.90
51839;DHT22;37886;53.174;6.368;2023-07-20T04:27:32;12.00;99.90
51839;DHT22;37886;53.174;6.368;2023-07-20T04:30:00;12.00;99.90
51839;DHT22;37886;53.174;6.368;2023-07-20T04:32:27;12.10;99.90
51839;DHT22;37886;53.174;6.368;2023-07-20T04:34:53;12.00;99.90
51839;DHT22;37886;53.174;6.368;2023-07-20T04:37:19;12.10;99.90
51839;DHT22;37886;53.174;6.368;2023-07-20T04:39:45;12.10;99.90
51839;DHT22;37886;53.174;6.368;2023-07-20T04:42:11;12.10;99.90
51839;DHT22;37886;53.174;6.368;2023-07-20T04:44:36;12.10;99.90
51839;DHT22;37886;53.174;6.368;2023-07-20T04:47:02;12.10;99.90
51839;DHT22;37886;53.174;6.368;2023-07-20T04:49:28;12.20;99.90
51839;DHT22;37886;53.174;6.368;2023-07-20T04:51:54;12.20;99.90
51839;DHT22;37886;53.174;6.368;2023-07-20T04:54:20;12.30;99.90
51839;DHT22;37886;53.174;6.368;2023-07-20T04:56:45;12.30;99.90
51839;DHT22;37886;53.174;6.368;2023-07-20T04:59:11;12.30;99.90
51839;DHT22;37886;53.174;6.368;2023-07-20T05:01:37;12.40;99.90
51839;DHT22;37886;53.174;6.368;2023-07-20T05:04:03;12.40;99.90
51839;DHT22;37886;53.174;6.368;2023-07-20T05:06:29;12.40;99.90
51839;DHT22;37886;53.174;6.368;2023-07-20T05:08:54;12.40;99.90
51839;DHT22;37886;53.174;6.368;2023-07-20T05:11:20;12.50;99.90
51839;DHT22;37886;53.174;6.368;2023-07-20T05:13:45;12.60;99.90
51839;DHT22;37886;53.174;6.368;2023-07-20T05:16:11;12.60;99.90
51839;DHT22;37886;53.174;6.368;2023-07-20T05:18:37;12.70;99.90
51839;DHT22;37886;53.174;6.368;2023-07-20T05:21:03;12.80;99.90
51839;DHT22;37886;53.174;6.368;2023-07-20T05:23:28;12.90;99.90
51839;DHT22;37886;53.174;6.368;2023-07-20T05:25:58;13.00;99.90
51839;DHT22;37886;53.174;6.368;2023-07-20T05:28:25;13.10;99.90
51839;DHT22;37886;53.174;6.368;2023-07-20T05:30:52;13.30;99.90
51839;DHT22;37886;53.174;6.368;2023-07-20T05:33:19;13.40;99.90
51839;DHT22;37886;53.174;6.368;2023-07-20T05:35:44;13.50;99.90
51839;DHT22;37886;53.174;6.368;2023-07-20T05:38:10;13.60;99.90
51839;DHT22;37886;53.174;6.368;2023-07-20T05:40:38;13.70;99.90
51839;DHT22;37886;53.174;6.368;2023-07-20T05:43:04;13.80;99.90
51839;DHT22;37886;53.174;6.368;2023-07-20T05:45:30;13.80;99.90
51839;DHT22;37886;53.174;6.368;2023-07-20T05:47:55;13.90;99.90
51839;DHT22;37886;53.174;6.368;2023-07-20T05:50:21;14.10;99.90
51839;DHT22;37886;53.174;6.368;2023-07-20T05:52:47;14.20;99.90
51839;DHT22;37886;53.174;6.368;2023-07-20T05:55:13;14.30;99.90
51839;DHT22;37886;53.174;6.368;2023-07-20T05:57:39;14.30;99.90
51839;DHT22;37886;53.174;6.368;2023-07-20T06:00:09;14.50;99.90
51839;DHT22;37886;53.174;6.368;2023-07-20T06:02:35;14.60;99.90
51839;DHT22;37886;53.174;6.368;2023-07-20T06:05:01;14.60;99.90
51839;DHT22;37886;53.174;6.368;2023-07-20T06:07:27;14.80;99.90
51839;DHT22;37886;53.174;6.368;2023-07-20T06:09:52;14.90;99.90
51839;DHT22;37886;53.174;6.368;2023-07-20T06:12:18;15.00;99.90
51839;DHT22;37886;53.174;6.368;2023-07-20T06:14:44;15.10;99.90
51839;DHT22;37886;53.174;6.368;2023-07-20T06:17:10;15.10;99.90
51839;DHT22;37886;53.174;6.368;2023-07-20T06:19:35;15.20;99.90
51839;DHT22;37886;53.174;6.368;2023-07-20T06:22:01;15.40;99.90
51839;DHT22;37886;53.174;6.368;2023-07-20T06:24:27;15.50;99.90
51839;DHT22;37886;53.174;6.368;2023-07-20T06:26:53;15.50;99.90
51839;DHT22;37886;53.174;6.368;2023-07-20T06:29:18;15.60;99.90
51839;DHT22;37886;53.174;6.368;2023-07-20T06:31:47;15.80;99.90
51839;DHT22;37886;53.174;6.368;2023-07-20T06:34:13;15.80;99.90
51839;DHT22;37886;53.174;6.368;2023-07-20T06:36:39;15.90;99.90
51839;DHT22;37886;53.174;6.368;2023-07-20T06:39:05;16.00;99.90
51839;DHT22;37886;53.174;6.368;2023-07-20T06:41:31;16.10;99.90
51839;DHT22;37886;53.174;6.368;2023-07-20T06:43:56;16.10;99.90
51839;DHT22;37886;53.174;6.368;2023-07-20T06:46:26;16.20;99.90
51839;DHT22;37886;53.174;6.368;2023-07-20T06:48:52;16.30;99.90
51839;DHT22;37886;53.174;6.368;2023-07-20T06:51:19;16.30;99.90
51839;DHT22;37886;53.174;6.368;2023-07-20T06:53:45;16.40;99.90
51839;DHT22;37886;53.174;6.368;2023-07-20T06:56:11;16.40;99.90
51839;DHT22;37886;53.174;6.368;2023-07-20T06:58:37;16.50;99.90
51839;DHT22;37886;53.174;6.368;2023-07-20T07:01:07;16.60;99.90
51839;DHT22;37886;53.174;6.368;2023-07-20T07:03:33;16.70;99.90
51839;DHT22;37886;53.174;6.368;2023-07-20T07:05:59;16.80;99.90
51839;DHT22;37886;53.174;6.368;2023-07-20T07:08:25;16.90;99.90
51839;DHT22;37886;53.174;6.368;2023-07-20T07:10:51;16.90;99.90
51839;DHT22;37886;53.174;6.368;2023-07-20T07:13:18;17.10;99.90
51839;DHT22;37886;53.174;6.368;2023-07-20T07:15:44;17.20;99.90
51839;DHT22;37886;53.174;6.368;2023-07-20T07:18:10;17.30;99.90
51839;DHT22;37886;53.174;6.368;2023-07-20T07:20:35;17.30;99.90
51839;DHT22;37886;53.174;6.368;2023-07-20T07:23:01;17.40;99.90
51839;DHT22;37886;53.174;6.368;2023-07-20T07:25:27;17.20;99.90
51839;DHT22;37886;53.174;6.368;2023-07-20T07:27:54;17.20;99.90
51839;DHT22;37886;53.174;6.368;2023-07-20T07:30:21;17.10;99.90
51839;DHT22;37886;53.174;6.368;2023-07-20T07:32:47;17.10;99.90
51839;DHT22;37886;53.174;6.368;2023-07-20T07:35:13;17.30;99.90
51839;DHT22;37886;53.174;6.368;2023-07-20T07:37:38;17.40;99.90
51839;DHT22;37886;53.174;6.368;2023-07-20T07:40:06;17.60;99.90
51839;DHT22;37886;53.174;6.368;2023-07-20T07:42:31;17.70;99.90
51839;DHT22;37886;53.174;6.368;2023-07-20T07:44:57;17.80;99.90
51839;DHT22;37886;53.174;6.368;2023-07-20T07:47:23;17.70;99.90
51839;DHT22;37886;53.174;6.368;2023-07-20T07:49:48;17.70;99.90
51839;DHT22;37886;53.174;6.368;2023-07-20T07:52:15;18.00;99.90
51839;DHT22;37886;53.174;6.368;2023-07-20T07:54:41;18.60;99.90
51839;DHT22;37886;53.174;6.368;2023-07-20T07:57:06;18.80;99.90
51839;DHT22;37886;53.174;6.368;2023-07-20T07:59:32;18.60;99.90
51839;DHT22;37886;53.174;6.368;2023-07-20T08:02:04;18.30;99.90
51839;DHT22;37886;53.174;6.368;2023-07-20T08:04:30;18.30;99.90
51839;DHT22;37886;53.174;6.368;2023-07-20T08:06:56;18.20;99.90
51839;DHT22;37886;53.174;6.368;2023-07-20T08:09:21;18.10;99.90
51839;DHT22;37886;53.174;6.368;2023-07-20T08:11:47;18.30;99.90
51839;DHT22;37886;53.174;6.368;2023-07-20T08:14:13;18.50;99.90
51839;DHT22;37886;53.174;6.368;2023-07-20T08:16:39;18.70;99.90
51839;DHT22;37886;53.174;6.368;2023-07-20T08:19:05;18.50;99.90
51839;DHT22;37886;53.174;6.368;2023-07-20T08:21:30;18.30;99.90
51839;DHT22;37886;53.174;6.368;2023-07-20T08:23:56;18.10;99.90
51839;DHT22;37886;53.174;6.368;2023-07-20T08:26:23;17.90;99.90
51839;DHT22;37886;53.174;6.368;2023-07-20T08:28:49;17.70;99.90
51839;DHT22;37886;53.174;6.368;2023-07-20T08:31:21;18.00;99.90
51839;DHT22;37886;53.174;6.368;2023-07-20T08:33:49;18.50;99.90
51839;DHT22;37886;53.174;6.368;2023-07-20T08:36:15;18.90;99.90
51839;DHT22;37886;53.174;6.368;2023-07-20T08:38:40;19.20;99.90
51839;DHT22;37886;53.174;6.368;2023-07-20T08:41:06;19.50;99.90
51839;DHT22;37886;53.174;6.368;2023-07-20T08:43:33;19.00;99.90
51839;DHT22;37886;53.174;6.368;2023-07-20T08:45:59;18.70;99.90
51839;DHT22;37886;53.174;6.368;2023-07-20T08:48:27;18.40;99.90
51839;DHT22;37886;53.174;6.368;2023-07-20T08:50:53;18.50;99.90
51839;DHT22;37886;53.174;6.368;2023-07-20T08:53:20;18.80;99.90
51839;DHT22;37886;53.174;6.368;2023-07-20T08:55:46;19.10;99.90
51839;DHT22;37886;53.174;6.368;2023-07-20T08:58:14;19.00;99.90
51839;DHT22;37886;53.174;6.368;2023-07-20T09:00:41;19.50;99.90
51839;DHT22;37886;53.174;6.368;2023-07-20T09:03:07;19.90;99.90
51839;DHT22;37886;53.174;6.368;2023-07-20T09:05:34;19.90;99.90
51839;DHT22;37886;53.174;6.368;2023-07-20T09:08:01;19.70;99.90
51839;DHT22;37886;53.174;6.368;2023-07-20T09:10:28;19.30;99.90
51839;DHT22;37886;53.174;6.368;2023-07-20T09:12:54;19.50;99.90
51839;DHT22;37886;53.174;6.368;2023-07-20T09:15:21;19.50;99.90
51839;DHT22;37886;53.174;6.368;2023-07-20T09:17:48;19.60;99.90
51839;DHT22;37886;53.174;6.368;2023-07-20T09:20:18;19.90;99.90
51839;DHT22;37886;53.174;6.368;2023-07-20T09:22:44;19.50;99.90
51839;DHT22;37886;53.174;6.368;2023-07-20T09:25:13;19.50;99.90
51839;DHT22;37886;53.174;6.368;2023-07-20T09:27:42;19.90;99.90
51839;DHT22;37886;53.174;6.368;2023-07-20T09:30:08;19.60;99.90
51839;DHT22;37886;53.174;6.368;2023-07-20T09:32:39;19.50;99.90
51839;DHT22;37886;53.174;6.368;2023-07-20T09:35:06;19.60;99.90
51839;DHT22;37886;53.174;6.368;2023-07-20T09:37:33;20.00;99.90
51839;DHT22;37886;53.174;6.368;2023-07-20T09:39:59;20.00;99.90
51839;DHT22;37886;53.174;6.368;2023-07-20T09:42:26;20.20;99.90
51839;DHT22;37886;53.174;6.368;2023-07-20T09:44:52;20.50;99.90
51839;DHT22;37886;53.174;6.368;2023-07-20T09:47:22;20.30;99.90
51839;DHT22;37886;53.174;6.368;2023-07-20T09:49:48;20.10;99.90
51839;DHT22;37886;53.174;6.368;2023-07-20T09:52:15;19.80;99.90
51839;DHT22;37886;53.174;6.368;2023-07-20T09:54:44;19.50;99.90
51839;DHT22;37886;53.174;6.368;2023-07-20T09:57:11;20.20;99.90
51839;DHT22;37886;53.174;6.368;2023-07-20T09:59:39;20.30;99.90
51839;DHT22;37886;53.174;6.368;2023-07-20T10:02:11;20.70;99.90
51839;DHT22;37886;53.174;6.368;2023-07-20T10:04:37;20.80;99.90
51839;DHT22;37886;53.174;6.368;2023-07-20T10:07:05;20.40;99.90
51839;DHT22;37886;53.174;6.368;2023-07-20T10:09:35;20.30;99.90
51839;DHT22;37886;53.174;6.368;2023-07-20T10:12:02;20.20;99.90
51839;DHT22;37886;53.174;6.368;2023-07-20T10:14:30;20.90;99.90
51839;DHT22;37886;53.174;6.368;2023-07-20T10:17:01;21.30;99.90
51839;DHT22;37886;53.174;6.368;2023-07-20T10:19:38;20.80;99.90
51839;DHT22;37886;53.174;6.368;2023-07-20T10:22:14;20.50;99.90
51839;DHT22;37886;53.174;6.368;2023-07-20T10:24:44;20.30;99.90
51839;DHT22;37886;53.174;6.368;2023-07-20T10:27:10;20.10;99.90
51839;DHT22;37886;53.174;6.368;2023-07-20T10:29:36;20.00;99.90
51839;DHT22;37886;53.174;6.368;2023-07-20T10:32:03;20.60;99.90
51839;DHT22;37886;53.174;6.368;2023-07-20T10:34:29;21.00;99.90
51839;DHT22;37886;53.174;6.368;2023-07-20T10:36:55;21.40;99.90
51839;DHT22;37886;53.174;6.368;2023-07-20T10:39:47;21.80;99.90
51839;DHT22;37886;53.174;6.368;2023-07-20T10:42:12;21.60;99.90
51839;DHT22;37886;53.174;6.368;2023-07-20T10:44:39;21.90;99.90
51839;DHT22;37886;53.174;6.368;2023-07-20T10:47:12;22.20;99.90
51839;DHT22;37886;53.174;6.368;2023-07-20T10:49:57;22.40;99.90
51839;DHT22;37886;53.174;6.368;2023-07-20T10:52:23;23.00;99.90
51839;DHT22;37886;53.174;6.368;2023-07-20T10:54:49;22.30;99.90
51839;DHT22;37886;53.174;6.368;2023-07-20T10:57:31;21.80;99.90
51839;DHT22;37886;53.174;6.368;2023-07-20T11:00:11;21.20;99.90
51839;DHT22;37886;53.174;6.368;2023-07-20T11:02:48;20.80;99.90
51839;DHT22;37886;53.174;6.368;2023-07-20T11:05:35;20.50;99.90
51839;DHT22;37886;53.174;6.368;2023-07-20T11:08:12;20.50;99.90
51839;DHT22;37886;53.174;6.368;2023-07-20T11:10:38;20.50;99.90
51839;DHT22;37886;53.174;6.368;2023-07-20T11:13:23;21.80;99.90
51839;DHT22;37886;53.174;6.368;2023-07-20T11:18:25;23.90;99.30
51839;DHT22;37886;53.174;6.368;2023-07-20T11:20:52;24.10;98.50
51839;DHT22;37886;53.174;6.368;2023-07-20T11:23:19;23.60;98.20
51839;DHT22;37886;53.174;6.368;2023-07-20T11:25:45;22.90;99.50
51839;DHT22;37886;53.174;6.368;2023-07-20T11:28:11;22.00;99.90
51839;DHT22;37886;53.174;6.368;2023-07-20T11:30:38;21.70;99.90
51839;DHT22;37886;53.174;6.368;2023-07-20T11:33:05;22.60;99.90
51839;DHT22;37886;53.174;6.368;2023-07-20T11:35:34;23.60;99.90
51839;DHT22;37886;53.174;6.368;2023-07-20T11:38:00;24.60;98.50
51839;DHT22;37886;53.174;6.368;2023-07-20T11:40:25;24.90;96.40
51839;DHT22;37886;53.174;6.368;2023-07-20T11:42:51;22.70;98.60
51839;DHT22;37886;53.174;6.368;2023-07-20T11:45:19;22.50;99.20
51839;DHT22;37886;53.174;6.368;2023-07-20T11:47:45;22.20;99.80
51839;DHT22;37886;53.174;6.368;2023-07-20T11:50:11;21.90;99.90
51839;DHT22;37886;53.174;6.368;2023-07-20T11:52:39;21.60;99.90
51839;DHT22;37886;53.174;6.368;2023-07-20T11:55:07;21.50;99.90
51839;DHT22;37886;53.174;6.368;2023-07-20T11:57:32;21.60;99.90
51839;DHT22;37886;53.174;6.368;2023-07-20T12:00:07;21.70;99.90
51839;DHT22;37886;53.174;6.368;2023-07-20T12:02:37;21.70;99.90
51839;DHT22;37886;53.174;6.368;2023-07-20T12:05:05;22.00;99.40
51839;DHT22;37886;53.174;6.368;2023-07-20T12:07:35;22.90;99.90
51839;DHT22;37886;53.174;6.368;2023-07-20T12:10:11;23.70;99.80
51839;DHT22;37886;53.174;6.368;2023-07-20T12:12:38;22.50;99.80
51839;DHT22;37886;53.174;6.368;2023-07-20T12:15:25;21.60;99.90
51839;DHT22;37886;53.174;6.368;2023-07-20T12:18:02;20.50;99.90
51839;DHT22;37886;53.174;6.368;2023-07-20T12:20:35;19.20;99.90
51839;DHT22;37886;53.174;6.368;2023-07-20T12:28:14;18.40;99.90
51839;DHT22;37886;53.174;6.368;2023-07-20T12:30:41;18.50;99.90
51839;DHT22;37886;53.174;6.368;2023-07-20T12:33:07;18.80;99.90
51839;DHT22;37886;53.174;6.368;2023-07-20T12:35:33;19.10;99.90
51839;DHT22;37886;53.174;6.368;2023-07-20T12:38:00;19.60;99.90
51839;DHT22;37886;53.174;6.368;2023-07-20T12:40:26;20.70;99.90
51839;DHT22;37886;53.174;6.368;2023-07-20T12:42:51;21.30;99.90
51839;DHT22;37886;53.174;6.368;2023-07-20T12:45:17;22.20;99.90
51839;DHT22;37886;53.174;6.368;2023-07-20T12:47:43;22.40;99.90
51839;DHT22;37886;53.174;6.368;2023-07-20T12:50:10;21.30;99.90
51839;DHT22;37886;53.174;6.368;2023-07-20T12:52:37;20.40;99.90
51839;DHT22;37886;53.174;6.368;2023-07-20T12:55:04;19.50;99.90
51839;DHT22;37886;53.174;6.368;2023-07-20T12:57:30;18.90;99.90
51839;DHT22;37886;53.174;6.368;2023-07-20T12:59:56;19.00;99.90
51839;DHT22;37886;53.174;6.368;2023-07-20T13:02:21;19.00;99.90
51839;DHT22;37886;53.174;6.368;2023-07-20T13:04:47;19.20;99.90
51839;DHT22;37886;53.174;6.368;2023-07-20T13:07:13;19.70;99.90
51839;DHT22;37886;53.174;6.368;2023-07-20T13:09:38;20.10;99.90
51839;DHT22;37886;53.174;6.368;2023-07-20T13:12:04;20.70;99.90
51839;DHT22;37886;53.174;6.368;2023-07-20T13:14:30;21.50;99.90
51839;DHT22;37886;53.174;6.368;2023-07-20T13:16:56;22.00;99.90
51839;DHT22;37886;53.174;6.368;2023-07-20T13:19:21;22.40;99.90
51839;DHT22;37886;53.174;6.368;2023-07-20T13:21:47;23.40;99.90
51839;DHT22;37886;53.174;6.368;2023-07-20T13:24:13;23.50;99.90
51839;DHT22;37886;53.174;6.368;2023-07-20T13:26:39;23.10;99.90
51839;DHT22;37886;53.174;6.368;2023-07-20T13:29:04;22.20;99.90
51839;DHT22;37886;53.174;6.368;2023-07-20T13:31:30;21.90;99.90
51839;DHT22;37886;53.174;6.368;2023-07-20T13:33:56;22.90;99.90
51839;DHT22;37886;53.174;6.368;2023-07-20T13:36:23;23.30;99.90
51839;DHT22;37886;53.174;6.368;2023-07-20T13:38:49;23.00;99.90
51839;DHT22;37886;53.174;6.368;2023-07-20T13:41:14;22.20;99.90
51839;DHT22;37886;53.174;6.368;2023-07-20T13:43:42;21.50;99.90
51839;DHT22;37886;53.174;6.368;2023-07-20T13:46:07;21.10;99.90
51839;DHT22;37886;53.174;6.368;2023-07-20T13:48:33;20.90;99.90
51839;DHT22;37886;53.174;6.368;2023-07-20T13:50:59;20.70;99.90
51839;DHT22;37886;53.174;6.368;2023-07-20T13:53:24;20.70;99.90
51839;DHT22;37886;53.174;6.368;2023-07-20T13:55:50;20.70;99.90
51839;DHT22;37886;53.174;6.368;2023-07-20T13:58:17;20.70;99.90
51839;DHT22;37886;53.174;6.368;2023-07-20T14:00:43;20.70;99.90
51839;DHT22;37886;53.174;6.368;2023-07-20T14:03:09;20.80;99.90
51839;DHT22;37886;53.174;6.368;2023-07-20T14:05:35;20.80;99.90
51839;DHT22;37886;53.174;6.368;2023-07-20T14:08:00;20.90;99.90
51839;DHT22;37886;53.174;6.368;2023-07-20T14:10:26;21.50;99.90
51839;DHT22;37886;53.174;6.368;2023-07-20T14:12:52;22.30;99.90
51839;DHT22;37886;53.174;6.368;2023-07-20T14:15:17;21.70;99.90
51839;DHT22;37886;53.174;6.368;2023-07-20T14:17:44;21.40;99.90
51839;DHT22;37886;53.174;6.368;2023-07-20T14:20:10;21.20;99.90
51839;DHT22;37886;53.174;6.368;2023-07-20T14:22:36;21.30;99.90
51839;DHT22;37886;53.174;6.368;2023-07-20T14:25:02;22.30;99.90
51839;DHT22;37886;53.174;6.368;2023-07-20T14:27:28;22.60;99.90
51839;DHT22;37886;53.174;6.368;2023-07-20T14:29:54;22.50;99.90
51839;DHT22;37886;53.174;6.368;2023-07-20T14:32:20;21.70;99.90
51839;DHT22;37886;53.174;6.368;2023-07-20T14:34:46;22.30;99.90
51839;DHT22;37886;53.174;6.368;2023-07-20T14:37:11;23.30;99.90
51839;DHT22;37886;53.174;6.368;2023-07-20T14:39:38;23.00;99.90
51839;DHT22;37886;53.174;6.368;2023-07-20T14:42:04;23.50;99.90
51839;DHT22;37886;53.174;6.368;2023-07-20T14:44:30;24.30;99.90
51839;DHT22;37886;53.174;6.368;2023-07-20T14:46:56;24.20;99.90
51839;DHT22;37886;53.174;6.368;2023-07-20T14:49:21;23.60;99.90
51839;DHT22;37886;53.174;6.368;2023-07-20T14:51:47;23.80;99.90
51839;DHT22;37886;53.174;6.368;2023-07-20T14:54:13;22.90;99.90
51839;DHT22;37886;53.174;6.368;2023-07-20T14:56:39;22.60;99.90
51839;DHT22;37886;53.174;6.368;2023-07-20T14:59:14;22.80;99.90
51839;DHT22;37886;53.174;6.368;2023-07-20T15:01:40;23.80;99.90
51839;DHT22;37886;53.174;6.368;2023-07-20T15:04:05;23.50;99.90
51839;DHT22;37886;53.174;6.368;2023-07-20T15:06:31;22.50;99.90
51839;DHT22;37886;53.174;6.368;2023-07-20T15:08:57;21.90;99.90
51839;DHT22;37886;53.174;6.368;2023-07-20T15:11:23;22.10;99.90
51839;DHT22;37886;53.174;6.368;2023-07-20T15:13:49;23.20;99.90
51839;DHT22;37886;53.174;6.368;2023-07-20T15:16:15;22.90;99.90
51839;DHT22;37886;53.174;6.368;2023-07-20T15:18:40;22.70;99.90
51839;DHT22;37886;53.174;6.368;2023-07-20T15:21:06;22.30;99.90
51839;DHT22;37886;53.174;6.368;2023-07-20T15:23:32;22.30;99.90
51839;DHT22;37886;53.174;6.368;2023-07-20T15:25:57;22.80;99.90
51839;DHT22;37886;53.174;6.368;2023-07-20T15:28:26;22.10;99.90
51839;DHT22;37886;53.174;6.368;2023-07-20T15:30:59;22.00;99.90
51839;DHT22;37886;53.174;6.368;2023-07-20T15:33:25;22.00;99.90
51839;DHT22;37886;53.174;6.368;2023-07-20T15:35:51;22.80;99.90
51839;DHT22;37886;53.174;6.368;2023-07-20T15:38:17;23.90;99.90
51839;DHT22;37886;53.174;6.368;2023-07-20T15:40:43;23.20;99.90
51839;DHT22;37886;53.174;6.368;2023-07-20T15:43:09;22.80;99.90
51839;DHT22;37886;53.174;6.368;2023-07-20T15:45:35;23.00;99.90